Latest Coastal Weather Observations for Burnie Port

IDT60701

Issued at 10:03 am EST Wednesday 29 June 2016 (issued every 10 minutes, with the page automatically refreshed every 10 minutes)

About coastal observations | Map of coastal stations | Coastal observations for TAS | Marine services | Other Formats
Station Details ID: 091344 Name: BURNIE NTC AWS Lat: -41.05 Lon: 145.91 Height: 0.0 m
Data from the previous 72 hours. | See also: Recent months for locations in Tasmania
Date/Time
EST
Temp
°C
Wind Pressure Rain since
9am
mm
Weather Cloud Vis
km
Sea
Height
m
Swell
Dir  Spd
kts
Gust
kts
hPa Trend Height
m
Period
s
Dir
29/10:00am 12.2 NW 6 7 1022.1 - - - - - - - - -
29/09:30am 12.0 NW 5 8 1022.1 - - - - - - - - -
29/09:00am 11.9 WNW 5 8 1022.1 - - - - - - - - -
29/08:30am 11.5 W 5 10 1021.8 - - - - - - - - -
29/08:00am 11.1 WNW 5 7 1021.3 - - - - - - - - -
29/07:30am 11.6 WNW 5 8 1021.1 - - - - - - - - -
29/07:00am 11.6 W 5 8 1020.8 - - - - - - - - -
29/06:30am 11.1 W 3 5 1020.5 - - - - - - - - -
29/06:00am 10.9 W 3 6 1020.3 - - - - - - - - -
29/05:30am 10.9 W 5 8 1020.0 - - - - - - - - -
29/05:00am 11.2 W 7 11 1019.7 - - - - - - - - -
29/04:30am 11.2 W 7 11 1019.5 - - - - - - - - -
29/04:00am 10.9 WSW 6 9 1019.7 - - - - - - - - -
29/03:30am 11.0 W 6 10 1019.9 - - - - - - - - -
29/03:00am 11.2 W 5 9 1019.9 - - - - - - - - -
29/02:30am 11.0 WNW 5 8 1020.0 - - - - - - - - -
29/02:00am 11.4 W 6 9 1020.0 - - - - - - - - -
29/01:30am 11.3 WNW 4 7 1019.9 - - - - - - - - -
29/01:00am 11.5 WSW 3 6 1019.8 - - - - - - - - -
29/12:30am 11.9 W 4 7 1019.9 - - - - - - - - -
29/12:00am 11.4 WNW 4 7 1020.1 - - - - - - - - -
 
Date/Time
EST
Temp
°C
Wind Pressure Rain since
9am
mm
Weather Cloud Vis
km
Sea
Height
m
Swell
Dir  Spd
kts
Gust
kts
hPa Trend Height
m
Period
s
Dir
28/11:30pm 11.8 W 6 9 1019.9 - - - - - - - - -
28/11:00pm 11.6 WNW 4 8 1019.9 - - - - - - - - -
28/10:30pm 11.7 W 5 8 1019.9 - - - - - - - - -
28/10:00pm 11.7 WNW 4 6 1019.8 - - - - - - - - -
28/09:30pm 11.7 W 4 6 1019.9 - - - - - - - - -
28/09:00pm 11.9 NW 6 8 1019.7 - - - - - - - - -
28/08:30pm 11.9 WNW 5 7 1019.6 - - - - - - - - -
28/08:00pm 12.1 WNW 4 7 1019.4 - - - - - - - - -
28/07:30pm 12.2 W 5 6 1019.2 - - - - - - - - -
28/07:00pm 12.5 WNW 4 8 1019.1 - - - - - - - - -
28/06:30pm 12.6 WNW 5 7 1018.9 - - - - - - - - -
28/06:00pm 12.7 WNW 5 9 1018.6 - - - - - - - - -
28/05:30pm 13.0 WNW 5 7 1018.3 - - - - - - - - -
28/05:00pm 13.2 WNW 6 12 1018.1 - - - - - - - - -
28/04:30pm 13.4 WNW 10 13 1017.8 - - - - - - - - -
28/04:00pm 13.8 WNW 8 11 1017.6 - - - - - - - - -
28/03:30pm 14.1 WNW 9 16 1017.4 - - - - - - - - -
28/03:00pm 14.3 WNW 11 17 1017.3 - - - - - - - - -
28/02:30pm 14.5 NW 10 15 1016.8 - - - - - - - - -
28/02:00pm 14.6 W 8 15 1016.9 - - - - - - - - -
28/01:30pm 14.8 WNW 10 17 1017.0 - - - - - - - - -
28/01:00pm 14.4 WNW 10 18 1017.2 - - - - - - - - -
28/12:30pm 14.2 WNW 13 19 1017.1 - - - - - - - - -
28/12:00pm 14.1 W 12 21 1017.2 - - - - - - - - -
28/11:30am 13.9 WNW 8 14 1017.5 - - - - - - - - -
28/11:00am 12.7 NW 9 11 1017.8 - - - - - - - - -
28/10:30am 11.9 NW 5 7 1017.9 - - - - - - - - -
28/10:00am 11.5 NW 8 9 1017.6 - - - - - - - - -
28/09:30am 11.7 WNW 7 10 1017.4 - - - - - - - - -
28/09:00am 11.2 WNW 7 10 1017.1 - - - - - - - - -
28/08:30am 10.9 WNW 6 9 1017.0 - - - - - - - - -
28/08:00am 10.6 WNW 6 9 1016.7 - - - - - - - - -
28/07:30am 10.6 WNW 4 7 1016.5 - - - - - - - - -
28/07:00am 10.4 W 3 5 1016.3 - - - - - - - - -
28/06:30am 10.3 W 2 3 1015.9 - - - - - - - - -
28/06:00am 10.3 W 4 7 1015.5 - - - - - - - - -
28/05:30am 9.9 WSW 2 3 1015.3 - - - - - - - - -
28/05:00am 10.0 W 4 5 1015.0 - - - - - - - - -
28/04:30am 10.3 WNW 4 6 1015.1 - - - - - - - - -
28/04:00am 10.4 W 5 7 1015.2 - - - - - - - - -
28/03:30am 10.1 WSW 4 7 1015.2 - - - - - - - - -
28/03:00am 10.2 W 5 9 1015.1 - - - - - - - - -
28/02:30am 10.2 W 6 11 1015.3 - - - - - - - - -
28/02:00am 10.1 W 6 10 1015.0 - - - - - - - - -
28/01:30am 10.2 WNW 6 11 1015.0 - - - - - - - - -
28/01:00am 9.3 WNW 5 8 1015.2 - - - - - - - - -
28/12:30am 9.2 WNW 3 6 1015.4 - - - - - - - - -
28/12:00am 8.1 SSW 1 1 1015.4 - - - - - - - - -
 
Date/Time
EST
Temp
°C
Wind Pressure Rain since
9am
mm
Weather Cloud Vis
km
Sea
Height
m
Swell
Dir  Spd
kts
Gust
kts
hPa Trend Height
m
Period
s
Dir
27/11:30pm 7.0 SSE 4 5 1015.5 - - - - - - - - -
27/11:00pm 7.3 SSW 3 3 1015.5 - - - - - - - - -
27/10:30pm 7.4 SSW 4 5 1015.5 - - - - - - - - -
27/10:00pm 7.6 SSE 2 3 1015.5 - - - - - - - - -
27/09:30pm 7.8 SSE 1 3 1015.4 - - - - - - - - -
27/09:00pm 8.9 W 1 4 1015.4 - - - - - - - - -
27/08:30pm 8.4 W 2 4 1015.1 - - - - - - - - -
27/08:00pm 9.2 WNW 3 4 1015.2 - - - - - - - - -
27/07:30pm 8.7 SW 3 3 1015.1 - - - - - - - - -
27/07:00pm 9.6 WSW 3 5 1014.9 - - - - - - - - -
27/06:30pm 10.2 W 3 5 1014.5 - - - - - - - - -
27/06:00pm 10.5 W 6 8 1014.2 - - - - - - - - -
27/05:30pm 10.9 W 8 11 1013.8 - - - - - - - - -
27/05:00pm 11.4 W 8 14 1013.5 - - - - - - - - -
27/04:30pm 11.7 W 8 12 1013.2 - - - - - - - - -
27/04:00pm 11.9 W 8 13 1013.0 - - - - - - - - -
27/03:30pm 12.2 W 7 11 1013.0 - - - - - - - - -
27/03:00pm 12.1 W 6 12 1013.0 - - - - - - - - -
27/02:30pm 12.3 W 9 16 1012.7 - - - - - - - - -
27/02:00pm 12.0 W 10 15 1012.6 - - - - - - - - -
27/01:30pm 13.1 W 9 16 1012.5 - - - - - - - - -
27/01:00pm 13.0 W 8 14 1012.6 - - - - - - - - -
27/12:30pm 12.7 WSW 6 12 1012.8 - - - - - - - - -
27/12:00pm 12.1 WNW 5 11 1013.1 - - - - - - - - -
27/11:30am 10.4 NNW 6 7 1013.4 - - - - - - - - -
27/11:00am 9.8 NNW 6 7 1013.4 - - - - - - - - -
27/10:30am 9.6 NW 5 7 1013.6 - - - - - - - - -
27/10:00am 9.8 NW 3 5 1013.5 - - - - - - - - -
27/09:30am 9.3 W 5 9 1013.3 - - - - - - - - -
27/09:00am 8.8 W 5 7 1013.1 - - - - - - - - -
27/08:30am 8.1 WNW 4 6 1012.8 - - - - - - - - -
27/08:00am 7.6 WSW 1 3 1012.5 - - - - - - - - -
27/07:30am 7.6 WSW 1 4 1012.1 - - - - - - - - -
27/07:00am 8.6 NW 4 5 1011.6 - - - - - - - - -
27/06:30am 7.9 SW 1 2 1011.2 - - - - - - - - -
27/06:00am 8.1 WSW 2 3 1010.9 - - - - - - - - -
27/05:30am 8.4 SW 2 3 1010.6 - - - - - - - - -
27/05:00am 8.5 S 5 7 1010.5 - - - - - - - - -
27/04:30am 9.0 SSW 3 6 1010.5 - - - - - - - - -
27/04:00am 9.0 SW 5 7 1010.5 - - - - - - - - -
27/03:30am 9.3 W 2 4 1010.6 - - - - - - - - -
27/03:00am 9.7 WNW 4 6 1011.0 - - - - - - - - -
27/02:30am 9.6 W 6 9 1011.1 - - - - - - - - -
27/02:00am 9.9 WNW 5 9 1011.1 - - - - - - - - -
27/01:30am 10.0 W 7 11 1011.0 - - - - - - - - -
27/01:00am 10.7 WNW 7 12 1011.0 - - - - - - - - -
27/12:35am 10.7 WNW 21 29 1011.2 - - - - - - - - -
27/12:30am 11.4 NW 23 29 1011.0 - - - - - - - - -
27/12:00am 12.5 NW 21 26 1011.0 - - - - - - - - -
 
Date/Time
EST
Temp
°C
Wind Pressure Rain since
9am
mm
Weather Cloud Vis
km
Sea
Height
m
Swell
Dir  Spd
kts
Gust
kts
hPa Trend Height
m
Period
s
Dir
26/11:30pm 12.5 NNW 20 26 1011.0 - - - - - - - - -
26/11:00pm 12.4 NNW 19 23 1011.3 - - - - - - - - -
26/10:30pm 12.3 NW 19 24 1011.5 - - - - - - - - -
26/10:00pm 11.5 WNW 8 19 1011.9 - - - - - - - - -
26/09:30pm 11.7 WNW 7 14 1012.1 - - - - - - - - -
26/09:00pm 11.3 W 7 11 1012.3 - - - - - - - - -
26/08:30pm 11.5 WNW 7 19 1012.6 - - - - - - - - -

Other Formats:

Comma delimited format used in spreadsheet applications
http://www.bom.gov.au/fwo/IDT60701/IDT60701.95963.axf

JavaScript Object Notation format (JSON) in row-major order
http://www.bom.gov.au/fwo/IDT60701/IDT60701.95963.json